sensor_id;sensor_type;location;lat;lon;timestamp;pressure;altitude;pressure_sealevel;temperature;humidity
68594;BME280;55563;52.416;13.548;2024-01-15T00:00:17;98975.03;;;2.44;100.00
68594;BME280;55563;52.416;13.548;2024-01-15T00:02:18;98977.31;;;2.40;100.00
68594;BME280;55563;52.416;13.548;2024-01-15T00:04:18;98978.09;;;2.41;100.00
68594;BME280;55563;52.416;13.548;2024-01-15T00:06:19;98973.97;;;2.40;100.00
68594;BME280;55563;52.416;13.548;2024-01-15T00:08:19;98966.94;;;2.40;100.00
68594;BME280;55563;52.416;13.548;2024-01-15T00:10:20;98965.13;;;2.41;100.00
68594;BME280;55563;52.416;13.548;2024-01-15T00:12:21;98956.00;;;2.33;100.00
68594;BME280;55563;52.416;13.548;2024-01-15T00:14:22;98960.75;;;2.41;100.00
68594;BME280;55563;52.416;13.548;2024-01-15T00:16:23;98946.16;;;2.35;100.00
68594;BME280;55563;52.416;13.548;2024-01-15T00:18:23;98956.53;;;2.35;100.00
68594;BME280;55563;52.416;13.548;2024-01-15T00:20:24;98951.84;;;2.32;100.00
68594;BME280;55563;52.416;13.548;2024-01-15T00:22:25;98946.16;;;2.35;100.00
68594;BME280;55563;52.416;13.548;2024-01-15T00:24:27;98948.00;;;2.35;100.00
68594;BME280;55563;52.416;13.548;2024-01-15T00:26:28;98937.56;;;2.30;100.00
68594;BME280;55563;52.416;13.548;2024-01-15T00:28:28;98937.56;;;2.30;100.00
68594;BME280;55563;52.416;13.548;2024-01-15T00:30:29;98936.00;;;2.29;100.00
68594;BME280;55563;52.416;13.548;2024-01-15T00:32:29;98930.00;;;2.23;100.00
68594;BME280;55563;52.416;13.548;2024-01-15T00:34:30;98928.19;;;2.24;100.00
68594;BME280;55563;52.416;13.548;2024-01-15T00:36:30;98924.84;;;2.28;100.00
68594;BME280;55563;52.416;13.548;2024-01-15T00:38:31;98918.88;;;2.28;100.00
68594;BME280;55563;52.416;13.548;2024-01-15T00:40:32;98920.66;;;2.22;100.00
68594;BME280;55563;52.416;13.548;2024-01-15T00:42:32;98913.41;;;2.24;100.00
68594;BME280;55563;52.416;13.548;2024-01-15T00:44:33;98920.47;;;2.29;100.00
68594;BME280;55563;52.416;13.548;2024-01-15T00:46:42;98905.88;;;2.23;100.00
68594;BME280;55563;52.416;13.548;2024-01-15T00:48:43;98904.06;;;2.23;100.00
68594;BME280;55563;52.416;13.548;2024-01-15T00:50:44;98898.38;;;2.26;100.00
68594;BME280;55563;52.416;13.548;2024-01-15T00:52:45;98887.69;;;2.17;100.00
68594;BME280;55563;52.416;13.548;2024-01-15T00:54:45;98877.38;;;2.23;100.00
68594;BME280;55563;52.416;13.548;2024-01-15T00:56:46;98884.38;;;2.22;100.00
68594;BME280;55563;52.416;13.548;2024-01-15T00:58:46;98883.88;;;2.25;100.00
68594;BME280;55563;52.416;13.548;2024-01-15T01:00:47;98875.06;;;2.26;100.00
68594;BME280;55563;52.416;13.548;2024-01-15T01:02:47;98877.19;;;2.29;100.00
68594;BME280;55563;52.416;13.548;2024-01-15T01:04:48;98874.03;;;2.27;100.00
68594;BME280;55563;52.416;13.548;2024-01-15T01:06:49;98873.28;;;2.32;100.00
68594;BME280;55563;52.416;13.548;2024-01-15T01:08:49;98878.19;;;2.28;100.00
68594;BME280;55563;52.416;13.548;2024-01-15T01:10:50;98875.06;;;2.26;100.00
68594;BME280;55563;52.416;13.548;2024-01-15T01:12:50;98873.22;;;2.22;100.00
68594;BME280;55563;52.416;13.548;2024-01-15T01:14:51;98867.25;;;2.21;100.00
68594;BME280;55563;52.416;13.548;2024-01-15T01:16:52;98869.31;;;2.19;100.00
68594;BME280;55563;52.416;13.548;2024-01-15T01:18:52;98873.94;;;2.17;100.00
68594;BME280;55563;52.416;13.548;2024-01-15T01:20:53;98857.84;;;2.10;100.00
68594;BME280;55563;52.416;13.548;2024-01-15T01:22:53;98865.34;;;2.11;100.00
68594;BME280;55563;52.416;13.548;2024-01-15T01:24:54;98856.81;;;2.11;100.00
68594;BME280;55563;52.416;13.548;2024-01-15T01:26:54;98858.91;;;2.14;100.00
68594;BME280;55563;52.416;13.548;2024-01-15T01:28:55;98870.84;;;2.15;100.00
68594;BME280;55563;52.416;13.548;2024-01-15T01:30:55;98873.13;;;2.11;100.00
68594;BME280;55563;52.416;13.548;2024-01-15T01:32:56;98879.53;;;2.04;100.00
68594;BME280;55563;52.416;13.548;2024-01-15T01:34:57;98868.63;;;2.02;100.00
68594;BME280;55563;52.416;13.548;2024-01-15T01:36:57;98876.72;;;2.05;100.00
68594;BME280;55563;52.416;13.548;2024-01-15T01:38:58;98869.72;;;2.06;100.00
68594;BME280;55563;52.416;13.548;2024-01-15T01:40:58;98867.13;;;2.06;100.00
68594;BME280;55563;52.416;13.548;2024-01-15T01:42:59;98872.69;;;1.93;100.00
68594;BME280;55563;52.416;13.548;2024-01-15T01:45:00;98879.03;;;2.07;100.00
68594;BME280;55563;52.416;13.548;2024-01-15T01:47:01;98885.31;;;2.11;100.00
68594;BME280;55563;52.416;13.548;2024-01-15T01:49:02;98874.69;;;2.12;100.00
68594;BME280;55563;52.416;13.548;2024-01-15T01:51:05;98872.28;;;2.01;100.00
68594;BME280;55563;52.416;13.548;2024-01-15T01:53:06;98877.47;;;2.01;100.00
68594;BME280;55563;52.416;13.548;2024-01-15T01:55:07;98866.31;;;2.00;100.00
68594;BME280;55563;52.416;13.548;2024-01-15T01:57:10;98866.78;;;1.97;100.00
68594;BME280;55563;52.416;13.548;2024-01-15T01:59:12;98864.16;;;1.92;100.00
68594;BME280;55563;52.416;13.548;2024-01-15T02:01:15;98856.88;;;1.89;100.00
68594;BME280;55563;52.416;13.548;2024-01-15T02:03:16;98860.44;;;1.83;100.00
68594;BME280;55563;52.416;13.548;2024-01-15T02:05:18;98868.03;;;1.90;100.00
68594;BME280;55563;52.416;13.548;2024-01-15T02:07:20;98865.75;;;1.98;100.00
68594;BME280;55563;52.416;13.548;2024-01-15T02:09:21;98869.97;;;1.77;100.00
68594;BME280;55563;52.416;13.548;2024-01-15T02:11:22;98871.69;;;1.94;100.00
68594;BME280;55563;52.416;13.548;2024-01-15T02:13:23;98871.19;;;1.97;100.00
68594;BME280;55563;52.416;13.548;2024-01-15T02:15:23;98870.59;;;1.90;100.00
68594;BME280;55563;52.416;13.548;2024-01-15T02:17:24;98863.91;;;1.94;100.00
68594;BME280;55563;52.416;13.548;2024-01-15T02:19:24;98864.47;;;1.96;100.00
68594;BME280;55563;52.416;13.548;2024-01-15T02:21:25;98862.44;;;2.03;100.00
68594;BME280;55563;52.416;13.548;2024-01-15T02:23:29;98857.16;;;1.93;100.00
68594;BME280;55563;52.416;13.548;2024-01-15T02:25:30;98862.88;;;1.95;100.00
68594;BME280;55563;52.416;13.548;2024-01-15T02:27:31;98851.19;;;1.92;100.00
68594;BME280;55563;52.416;13.548;2024-01-15T02:29:31;98860.78;;;1.92;100.00
68594;BME280;55563;52.416;13.548;2024-01-15T02:31:32;98858.44;;;1.90;100.00
68594;BME280;55563;52.416;13.548;2024-01-15T02:33:33;98868.31;;;1.93;100.00
68594;BME280;55563;52.416;13.548;2024-01-15T02:35:34;98870.66;;;1.95;100.00
68594;BME280;55563;52.416;13.548;2024-01-15T02:37:36;98857.94;;;1.93;100.00
68594;BME280;55563;52.416;13.548;2024-01-15T02:39:37;98865.25;;;1.96;100.00
68594;BME280;55563;52.416;13.548;2024-01-15T02:41:37;98859.97;;;1.86;100.00
68594;BME280;55563;52.416;13.548;2024-01-15T02:43:38;98857.91;;;1.88;100.00
68594;BME280;55563;52.416;13.548;2024-01-15T02:45:39;98850.13;;;1.88;100.00
68594;BME280;55563;52.416;13.548;2024-01-15T02:47:40;98842.13;;;1.90;100.00
68594;BME280;55563;52.416;13.548;2024-01-15T02:49:40;98847.53;;;1.88;100.00
68594;BME280;55563;52.416;13.548;2024-01-15T02:51:41;98830.94;;;1.84;100.00
68594;BME280;55563;52.416;13.548;2024-01-15T02:53:41;98835.09;;;1.85;100.00
68594;BME280;55563;52.416;13.548;2024-01-15T02:55:42;98836.09;;;1.84;100.00
68594;BME280;55563;52.416;13.548;2024-01-15T02:57:43;98833.00;;;1.82;100.00
68594;BME280;55563;52.416;13.548;2024-01-15T02:59:43;98843.09;;;1.84;100.00
68594;BME280;55563;52.416;13.548;2024-01-15T03:01:44;98829.41;;;1.88;100.00
68594;BME280;55563;52.416;13.548;2024-01-15T03:03:44;98822.63;;;1.82;100.00
68594;BME280;55563;52.416;13.548;2024-01-15T03:05:45;98831.19;;;1.56;100.00
68594;BME280;55563;52.416;13.548;2024-01-15T03:07:46;98823.06;;;1.74;100.00
68594;BME280;55563;52.416;13.548;2024-01-15T03:09:46;98824.13;;;1.78;100.00
68594;BME280;55563;52.416;13.548;2024-01-15T03:11:47;98822.34;;;1.52;100.00
68594;BME280;55563;52.416;13.548;2024-01-15T03:13:48;98827.81;;;1.82;100.00
68594;BME280;55563;52.416;13.548;2024-01-15T03:15:49;98825.50;;;1.86;100.00
68594;BME280;55563;52.416;13.548;2024-01-15T03:17:50;98820.56;;;1.84;100.00
68594;BME280;55563;52.416;13.548;2024-01-15T03:19:50;98828.06;;;1.81;100.00
68594;BME280;55563;52.416;13.548;2024-01-15T03:21:51;98816.63;;;1.77;100.00
68594;BME280;55563;52.416;13.548;2024-01-15T03:23:51;98809.63;;;1.77;100.00
68594;BME280;55563;52.416;13.548;2024-01-15T03:25:52;98826.72;;;1.78;100.00
68594;BME280;55563;52.416;13.548;2024-01-15T03:27:52;98809.41;;;1.84;100.00
68594;BME280;55563;52.416;13.548;2024-01-15T03:29:53;98807.38;;;1.86;100.00
68594;BME280;55563;52.416;13.548;2024-01-15T03:31:54;98799.78;;;1.79;100.00
68594;BME280;55563;52.416;13.548;2024-01-15T03:33:54;98798.78;;;1.80;100.00
68594;BME280;55563;52.416;13.548;2024-01-15T03:35:55;98807.81;;;1.77;100.00
68594;BME280;55563;52.416;13.548;2024-01-15T03:37:56;98806.72;;;1.73;100.00
68594;BME280;55563;52.416;13.548;2024-01-15T03:39:56;98813.28;;;1.81;100.00
68594;BME280;55563;52.416;13.548;2024-01-15T03:41:57;98812.19;;;1.72;100.00
68594;BME280;55563;52.416;13.548;2024-01-15T03:43:58;98808.91;;;1.82;100.00
68594;BME280;55563;52.416;13.548;2024-01-15T03:45:59;98813.03;;;1.83;100.00
68594;BME280;55563;52.416;13.548;2024-01-15T03:48:00;98814.56;;;1.79;100.00
68594;BME280;55563;52.416;13.548;2024-01-15T03:50:00;98803.13;;;1.74;100.00
68594;BME280;55563;52.416;13.548;2024-01-15T03:52:01;98799.09;;;1.89;100.00
68594;BME280;55563;52.416;13.548;2024-01-15T03:54:01;98788.50;;;1.90;100.00
68594;BME280;55563;52.416;13.548;2024-01-15T03:56:02;98799.09;;;1.89;100.00
68594;BME280;55563;52.416;13.548;2024-01-15T03:58:03;98785.38;;;1.88;100.00
68594;BME280;55563;52.416;13.548;2024-01-15T04:00:04;98793.69;;;1.90;100.00
68594;BME280;55563;52.416;13.548;2024-01-15T04:02:19;98787.47;;;1.91;100.00
68594;BME280;55563;52.416;13.548;2024-01-15T04:04:20;98782.81;;;1.93;100.00
68594;BME280;55563;52.416;13.548;2024-01-15T04:06:20;98777.59;;;1.88;100.00
68594;BME280;55563;52.416;13.548;2024-01-15T04:08:21;98774.72;;;1.85;100.00
68594;BME280;55563;52.416;13.548;2024-01-15T04:10:22;98776.34;;;1.91;100.00
68594;BME280;55563;52.416;13.548;2024-01-15T04:12:22;98778.16;;;1.90;100.00
68594;BME280;55563;52.416;13.548;2024-01-15T04:14:23;98768.53;;;1.86;100.00
68594;BME280;55563;52.416;13.548;2024-01-15T04:16:23;98751.19;;;1.86;100.00
68594;BME280;55563;52.416;13.548;2024-01-15T04:18:24;98757.88;;;1.82;100.00
68594;BME280;55563;52.416;13.548;2024-01-15T04:20:24;98760.22;;;1.84;100.00
68594;BME280;55563;52.416;13.548;2024-01-15T04:22:26;98756.84;;;1.83;100.00
68594;BME280;55563;52.416;13.548;2024-01-15T04:24:27;98762.84;;;1.89;100.00
68594;BME280;55563;52.416;13.548;2024-01-15T04:26:27;98756.41;;;1.91;100.00
68594;BME280;55563;52.416;13.548;2024-01-15T04:28:28;98739.00;;;1.87;100.00
68594;BME280;55563;52.416;13.548;2024-01-15T04:30:29;98737.66;;;1.79;100.00
68594;BME280;55563;52.416;13.548;2024-01-15T04:32:29;98747.31;;;1.89;100.00
68594;BME280;55563;52.416;13.548;2024-01-15T04:34:30;98735.88;;;1.85;100.00
68594;BME280;55563;52.416;13.548;2024-01-15T04:36:31;98743.19;;;1.93;100.00
68594;BME280;55563;52.416;13.548;2024-01-15T04:38:31;98736.69;;;1.90;100.00
68594;BME280;55563;52.416;13.548;2024-01-15T04:40:33;98744.50;;;1.95;100.00
68594;BME280;55563;52.416;13.548;2024-01-15T04:42:33;98740.34;;;1.94;100.00
68594;BME280;55563;52.416;13.548;2024-01-15T04:44:34;98746.28;;;1.90;100.00
68594;BME280;55563;52.416;13.548;2024-01-15T04:46:35;98746.81;;;1.92;100.00
68594;BME280;55563;52.416;13.548;2024-01-15T04:48:35;98744.75;;;1.94;100.00
68594;BME280;55563;52.416;13.548;2024-01-15T04:50:36;98745.28;;;1.96;100.00
68594;BME280;55563;52.416;13.548;2024-01-15T04:52:36;98740.91;;;1.96;100.00
68594;BME280;55563;52.416;13.548;2024-01-15T04:54:37;98729.25;;;1.99;100.00
68594;BME280;55563;52.416;13.548;2024-01-15T04:56:38;98725.59;;;1.95;100.00
68594;BME280;55563;52.416;13.548;2024-01-15T04:58:38;98710.81;;;1.90;100.00
68594;BME280;55563;52.416;13.548;2024-01-15T05:00:39;98716.50;;;1.92;100.00
68594;BME280;55563;52.416;13.548;2024-01-15T05:02:40;98710.88;;;2.00;100.00
68594;BME280;55563;52.416;13.548;2024-01-15T05:04:40;98707.22;;;1.96;100.00
68594;BME280;55563;52.416;13.548;2024-01-15T05:06:41;98698.38;;;1.92;100.00
68594;BME280;55563;52.416;13.548;2024-01-15T05:08:41;98712.88;;;1.93;100.00
68594;BME280;55563;52.416;13.548;2024-01-15T05:10:42;98715.22;;;1.95;100.00
68594;BME280;55563;52.416;13.548;2024-01-15T05:12:43;98716.50;;;1.92;100.00
68594;BME280;55563;52.416;13.548;2024-01-15T05:14:43;98732.31;;;1.91;100.00
68594;BME280;55563;52.416;13.548;2024-01-15T05:16:47;98720.13;;;1.91;100.00
68594;BME280;55563;52.416;13.548;2024-01-15T05:18:48;98726.66;;;1.99;100.00
68594;BME280;55563;52.416;13.548;2024-01-15T05:20:49;98733.59;;;1.93;100.00
68594;BME280;55563;52.416;13.548;2024-01-15T05:22:49;98733.59;;;1.93;100.00
68594;BME280;55563;52.416;13.548;2024-01-15T05:24:50;98730.97;;;1.88;100.00
68594;BME280;55563;52.416;13.548;2024-01-15T05:26:51;98732.03;;;1.92;100.00
68594;BME280;55563;52.416;13.548;2024-01-15T05:28:51;98728.69;;;1.97;100.00
68594;BME280;55563;52.416;13.548;2024-01-15T05:30:52;98731.28;;;1.92;100.00
68594;BME280;55563;52.416;13.548;2024-01-15T05:32:53;98738.00;;;1.93;100.00
68594;BME280;55563;52.416;13.548;2024-01-15T05:34:54;98723.00;;;1.95;100.00
68594;BME280;55563;52.416;13.548;2024-01-15T05:36:55;98725.59;;;1.95;100.00
68594;BME280;55563;52.416;13.548;2024-01-15T05:38:55;98709.19;;;1.84;100.00
68594;BME280;55563;52.416;13.548;2024-01-15T05:40:56;98717.78;;;1.90;100.00
68594;BME280;55563;52.416;13.548;2024-01-15T05:42:56;98711.06;;;1.94;100.00
68594;BME280;55563;52.416;13.548;2024-01-15T05:44:57;98710.06;;;1.95;100.00
68594;BME280;55563;52.416;13.548;2024-01-15T05:47:00;98693.22;;;1.97;100.00
68594;BME280;55563;52.416;13.548;2024-01-15T05:49:00;98703.56;;;1.97;100.00
68594;BME280;55563;52.416;13.548;2024-01-15T05:51:01;98688.34;;;2.01;100.00
68594;BME280;55563;52.416;13.548;2024-01-15T05:53:02;98693.75;;;1.99;100.00
68594;BME280;55563;52.416;13.548;2024-01-15T05:55:03;98702.34;;;2.05;100.00
68594;BME280;55563;52.416;13.548;2024-01-15T05:57:04;98700.81;;;2.09;100.00
68594;BME280;55563;52.416;13.548;2024-01-15T05:59:04;98707.00;;;2.08;100.00
68594;BME280;55563;52.416;13.548;2024-01-15T06:01:05;98696.38;;;2.04;100.00
68594;BME280;55563;52.416;13.548;2024-01-15T06:03:06;98671.50;;;2.03;100.00
68594;BME280;55563;52.416;13.548;2024-01-15T06:05:06;98692.78;;;2.10;100.00
68594;BME280;55563;52.416;13.548;2024-01-15T06:07:07;98705.47;;;2.12;100.00
68594;BME280;55563;52.416;13.548;2024-01-15T06:09:08;98712.47;;;2.11;100.00
68594;BME280;55563;52.416;13.548;2024-01-15T06:11:09;98713.53;;;2.10;100.00
68594;BME280;55563;52.416;13.548;2024-01-15T06:13:09;98706.13;;;1.92;100.00
68594;BME280;55563;52.416;13.548;2024-01-15T06:15:10;98706.16;;;1.97;100.00
68594;BME280;55563;52.416;13.548;2024-01-15T06:17:11;98712.72;;;2.05;100.00
68594;BME280;55563;52.416;13.548;2024-01-15T06:19:11;98709.31;;;1.99;100.00
68594;BME280;55563;52.416;13.548;2024-01-15T06:21:12;98703.56;;;1.97;100.00
68594;BME280;55563;52.416;13.548;2024-01-15T06:23:14;98712.94;;;2.03;100.00
68594;BME280;55563;52.416;13.548;2024-01-15T06:25:15;98702.03;;;1.96;100.00
68594;BME280;55563;52.416;13.548;2024-01-15T06:27:16;98702.81;;;2.02;100.00
68594;BME280;55563;52.416;13.548;2024-01-15T06:29:16;98706.47;;;2.01;100.00
68594;BME280;55563;52.416;13.548;2024-01-15T06:31:17;98713.50;;;2.05;100.00
68594;BME280;55563;52.416;13.548;2024-01-15T06:33:17;98709.34;;;2.04;100.00
68594;BME280;55563;52.416;13.548;2024-01-15T06:35:18;98713.19;;;2.02;100.00
68594;BME280;55563;52.416;13.548;2024-01-15T06:37:19;98719.91;;;1.98;100.00
68594;BME280;55563;52.416;13.548;2024-01-15T06:39:20;98725.03;;;1.93;100.00
68594;BME280;55563;52.416;13.548;2024-01-15T06:41:21;98724.84;;;1.99;100.00
68594;BME280;55563;52.416;13.548;2024-01-15T06:43:22;98715.78;;;2.02;100.00
68594;BME280;55563;52.416;13.548;2024-01-15T06:45:23;98707.97;;;1.97;100.00
68594;BME280;55563;52.416;13.548;2024-01-15T06:47:24;98718.13;;;2.03;100.00
68594;BME280;55563;52.416;13.548;2024-01-15T06:49:25;98718.16;;;2.08;100.00
68594;BME280;55563;52.416;13.548;2024-01-15T06:51:25;98718.38;;;2.02;100.00
68594;BME280;55563;52.416;13.548;2024-01-15T06:53:26;98716.31;;;2.04;100.00
68594;BME280;55563;52.416;13.548;2024-01-15T06:55:26;98718.69;;;2.05;100.00
68594;BME280;55563;52.416;13.548;2024-01-15T06:57:28;98724.09;;;2.04;100.00
68594;BME280;55563;52.416;13.548;2024-01-15T06:59:28;98714.75;;;2.03;100.00
68594;BME280;55563;52.416;13.548;2024-01-15T07:01:29;98722.81;;;2.06;100.00
68594;BME280;55563;52.416;13.548;2024-01-15T07:03:30;98723.63;;;2.12;100.00
68594;BME280;55563;52.416;13.548;2024-01-15T07:05:30;98717.66;;;2.11;100.00
68594;BME280;55563;52.416;13.548;2024-01-15T07:07:31;98709.09;;;2.06;100.00
68594;BME280;55563;52.416;13.548;2024-01-15T07:09:32;98712.19;;;2.08;100.00
68594;BME280;55563;52.416;13.548;2024-01-15T07:11:32;98721.81;;;2.12;100.00
68594;BME280;55563;52.416;13.548;2024-01-15T07:13:33;98715.59;;;2.13;100.00
68594;BME280;55563;52.416;13.548;2024-01-15T07:15:33;98710.97;;;2.15;100.00
68594;BME280;55563;52.416;13.548;2024-01-15T07:17:35;98713.00;;;2.13;100.00
68594;BME280;55563;52.416;13.548;2024-01-15T07:19:36;98702.91;;;2.12;100.00
68594;BME280;55563;52.416;13.548;2024-01-15T07:21:36;98728.81;;;2.12;100.00
68594;BME280;55563;52.416;13.548;2024-01-15T07:23:40;98729.84;;;2.16;100.00
68594;BME280;55563;52.416;13.548;2024-01-15T07:25:41;98731.47;;;2.22;100.00
68594;BME280;55563;52.416;13.548;2024-01-15T07:27:41;98717.72;;;2.22;100.00
68594;BME280;55563;52.416;13.548;2024-01-15T07:29:44;98722.38;;;2.19;100.00
68594;BME280;55563;52.416;13.548;2024-01-15T07:31:52;98735.84;;;2.22;100.00
68594;BME280;55563;52.416;13.548;2024-01-15T07:33:53;98738.75;;;2.25;100.00
68594;BME280;55563;52.416;13.548;2024-01-15T07:35:54;98735.66;;;2.28;100.00
68594;BME280;55563;52.416;13.548;2024-01-15T07:37:54;98745.00;;;2.29;100.00
68594;BME280;55563;52.416;13.548;2024-01-15T07:39:55;98748.09;;;2.31;100.00
68594;BME280;55563;52.416;13.548;2024-01-15T07:41:56;98760.81;;;2.33;100.00
68594;BME280;55563;52.416;13.548;2024-01-15T07:43:56;98763.16;;;2.34;100.00
68594;BME280;55563;52.416;13.548;2024-01-15T07:45:57;98757.72;;;2.36;100.00
68594;BME280;55563;52.416;13.548;2024-01-15T07:47:58;98761.34;;;2.35;100.00
68594;BME280;55563;52.416;13.548;2024-01-15T07:49:59;98768.34;;;2.34;100.00
68594;BME280;55563;52.416;13.548;2024-01-15T07:52:00;98771.50;;;2.41;100.00
68594;BME280;55563;52.416;13.548;2024-01-15T07:54:01;98761.09;;;2.36;100.00
68594;BME280;55563;52.416;13.548;2024-01-15T07:56:01;98765.50;;;2.36;100.00
68594;BME280;55563;52.416;13.548;2024-01-15T07:58:02;98765.53;;;2.41;100.00
68594;BME280;55563;52.416;13.548;2024-01-15T08:00:04;98759.59;;;2.45;100.00
68594;BME280;55563;52.416;13.548;2024-01-15T08:02:06;98767.34;;;2.45;100.00
68594;BME280;55563;52.416;13.548;2024-01-15T08:04:06;98759.88;;;2.49;100.00
68594;BME280;55563;52.416;13.548;2024-01-15T08:06:09;98762.38;;;1.97;100.00
68594;BME280;55563;52.416;13.548;2024-01-15T08:08:10;98776.28;;;1.86;100.00
68594;BME280;55563;52.416;13.548;2024-01-15T08:10:11;98781.63;;;2.43;100.00
68594;BME280;55563;52.416;13.548;2024-01-15T08:12:14;98768.38;;;2.39;100.00
68594;BME280;55563;52.416;13.548;2024-01-15T08:14:15;98773.81;;;2.38;100.00
68594;BME280;55563;52.416;13.548;2024-01-15T08:16:15;98761.63;;;2.38;100.00
68594;BME280;55563;52.416;13.548;2024-01-15T08:18:16;98761.38;;;2.45;100.00
68594;BME280;55563;52.416;13.548;2024-01-15T08:20:17;98767.13;;;2.47;100.00
68594;BME280;55563;52.416;13.548;2024-01-15T08:22:17;98775.13;;;2.45;100.00
68594;BME280;55563;52.416;13.548;2024-01-15T08:24:18;98771.03;;;2.49;100.00
68594;BME280;55563;52.416;13.548;2024-01-15T08:26:18;98774.16;;;2.51;100.00
68594;BME280;55563;52.416;13.548;2024-01-15T08:28:19;98768.91;;;2.41;100.00
68594;BME280;55563;52.416;13.548;2024-01-15T08:30:20;98759.59;;;2.50;100.00
68594;BME280;55563;52.416;13.548;2024-01-15T08:32:21;98778.03;;;2.49;100.00
68594;BME280;55563;52.416;13.548;2024-01-15T08:34:22;98786.88;;;2.53;100.00
68594;BME280;55563;52.416;13.548;2024-01-15T08:36:23;98776.69;;;2.46;100.00
68594;BME280;55563;52.416;13.548;2024-01-15T08:38:24;98774.66;;;2.48;100.00
68594;BME280;55563;52.416;13.548;2024-01-15T08:40:25;98783.69;;;2.46;100.00
68594;BME280;55563;52.416;13.548;2024-01-15T08:42:26;98776.72;;;2.51;100.00
68594;BME280;55563;52.416;13.548;2024-01-15T08:44:27;98772.84;;;2.49;100.00
68594;BME280;55563;52.416;13.548;2024-01-15T08:46:27;98775.69;;;2.47;100.00
68594;BME280;55563;52.416;13.548;2024-01-15T08:48:28;98771.56;;;2.56;100.00
68594;BME280;55563;52.416;13.548;2024-01-15T08:50:29;98771.06;;;2.59;100.00
68594;BME280;55563;52.416;13.548;2024-01-15T08:52:30;98785.88;;;2.64;100.00
68594;BME280;55563;52.416;13.548;2024-01-15T08:54:31;98779.91;;;2.58;100.00
68594;BME280;55563;52.416;13.548;2024-01-15T08:56:31;98786.09;;;2.52;100.00
68594;BME280;55563;52.416;13.548;2024-01-15T08:58:32;98788.97;;;2.61;100.00
68594;BME280;55563;52.416;13.548;2024-01-15T09:00:33;98779.63;;;2.60;100.00
68594;BME280;55563;52.416;13.548;2024-01-15T09:02:33;98781.44;;;2.59;100.00
68594;BME280;55563;52.416;13.548;2024-01-15T09:04:34;98773.97;;;2.63;100.00
68594;BME280;55563;52.416;13.548;2024-01-15T09:06:35;98776.28;;;2.64;100.00
68594;BME280;55563;52.416;13.548;2024-01-15T09:08:35;98783.56;;;2.68;100.00
68594;BME280;55563;52.416;13.548;2024-01-15T09:10:36;98772.38;;;2.62;100.00
68594;BME280;55563;52.416;13.548;2024-01-15T09:12:37;98778.38;;;2.68;100.00
68594;BME280;55563;52.416;13.548;2024-01-15T09:14:39;98788.75;;;2.68;100.00
68594;BME280;55563;52.416;13.548;2024-01-15T09:16:40;98802.75;;;2.67;100.00
68594;BME280;55563;52.416;13.548;2024-01-15T09:18:41;98799.09;;;2.62;100.00
68594;BME280;55563;52.416;13.548;2024-01-15T09:20:41;98792.09;;;2.63;100.00
68594;BME280;55563;52.416;13.548;2024-01-15T09:22:42;98804.34;;;2.73;100.00
68594;BME280;55563;52.416;13.548;2024-01-15T09:24:43;98804.53;;;2.61;100.00
68594;BME280;55563;52.416;13.548;2024-01-15T09:26:43;98796.97;;;2.54;100.00
68594;BME280;55563;52.416;13.548;2024-01-15T09:28:44;98796.47;;;2.57;100.00
68594;BME280;55563;52.416;13.548;2024-01-15T09:30:44;98802.28;;;2.80;100.00
68594;BME280;55563;52.416;13.548;2024-01-15T09:32:45;98815.50;;;2.78;100.00
68594;BME280;55563;52.416;13.548;2024-01-15T09:34:46;98817.59;;;2.76;100.00
68594;BME280;55563;52.416;13.548;2024-01-15T09:36:47;98815.78;;;2.77;100.00
68594;BME280;55563;52.416;13.548;2024-01-15T09:38:49;98821.47;;;2.79;100.00
68594;BME280;55563;52.416;13.548;2024-01-15T09:40:50;98825.31;;;2.66;100.00
68594;BME280;55563;52.416;13.548;2024-01-15T09:42:52;98836.66;;;2.55;100.00
68594;BME280;55563;52.416;13.548;2024-01-15T09:44:52;98833.56;;;2.58;100.00
68594;BME280;55563;52.416;13.548;2024-01-15T09:46:53;98825.56;;;2.64;100.00
68594;BME280;55563;52.416;13.548;2024-01-15T09:48:55;98817.53;;;2.66;100.00
68594;BME280;55563;52.416;13.548;2024-01-15T09:50:57;98830.78;;;2.70;100.00
68594;BME280;55563;52.416;13.548;2024-01-15T09:52:59;98825.09;;;2.73;100.00
68594;BME280;55563;52.416;13.548;2024-01-15T09:55:01;98825.34;;;2.71;100.00
68594;BME280;55563;52.416;13.548;2024-01-15T09:57:03;98807.19;;;2.71;100.00
68594;BME280;55563;52.416;13.548;2024-01-15T09:59:05;98812.16;;;2.78;100.00
68594;BME280;55563;52.416;13.548;2024-01-15T10:01:06;98808.44;;;2.69;100.00
68594;BME280;55563;52.416;13.548;2024-01-15T10:03:07;98813.41;;;2.70;100.00
68594;BME280;55563;52.416;13.548;2024-01-15T10:05:09;98804.59;;;2.71;100.00
68594;BME280;55563;52.416;13.548;2024-01-15T10:07:14;98804.38;;;2.78;100.00
68594;BME280;55563;52.416;13.548;2024-01-15T10:09:15;98801.47;;;2.74;100.00
68594;BME280;55563;52.416;13.548;2024-01-15T10:11:16;98793.94;;;2.68;100.00
68594;BME280;55563;52.416;13.548;2024-01-15T10:13:17;98802.09;;;2.91;100.00
68594;BME280;55563;52.416;13.548;2024-01-15T10:15:17;98802.13;;;2.96;100.00
68594;BME280;55563;52.416;13.548;2024-01-15T10:17:18;98794.81;;;2.93;100.00
68594;BME280;55563;52.416;13.548;2024-01-15T10:19:19;98795.13;;;2.97;100.00
68594;BME280;55563;52.416;13.548;2024-01-15T10:21:19;98812.78;;;3.00;100.00
68594;BME280;55563;52.416;13.548;2024-01-15T10:23:20;98810.41;;;2.98;100.00
68594;BME280;55563;52.416;13.548;2024-01-15T10:25:21;98806.50;;;2.91;100.00
68594;BME280;55563;52.416;13.548;2024-01-15T10:27:26;98801.81;;;2.93;100.00
68594;BME280;55563;52.416;13.548;2024-01-15T10:29:26;98800.81;;;2.94;100.00
68594;BME280;55563;52.416;13.548;2024-01-15T10:31:27;98796.41;;;2.94;100.00